Ds Blue Wave — A8YK2 — position and weather

sailwx.info

Track history (hours):
 
Tides and Currents Weather Stations Pressure Air Temp Water Temp Dewpoint Dewpoint Depression Visibility Wind Speed Wind Dir Waves Ship Positions

Ds Blue Wave

Last reported at 2016-Jul-29 08:19 UTC. Time now 2016-Jul-30 22:43 UTC.
Position N 31°15' E 121°57'.

Length 129 m; draft 7.2 m.

Type: Cargo ship. MMSI: 636092200.

Date/timePositionNaut miles runAvg speedWind from/ knotsBaromVisibWave heightAir tempDewpointWater temp
2016-Jul-29 08:19N 31°15' E 121°57'1314.5
2016-Jul-29 07:26N 31°19' E 121°43'7 1.7
2016-Jul-29 03:24N 31°22' E 121°35'0 0.0
2016-Jul-29 00:30N 31°22' E 121°35'0 0.0
2016-Jul-28 21:12N 31°22' E 121°35'0 0.0
2016-Jul-28 20:06N 31°22' E 121°35'1 0.3
2016-Jul-28 15:32N 31°22' E 121°37'  
2016-Jul-26 10:23N 34°36' E 134°56'1012.2
2016-Jul-26 09:33N 34°36' E 135°08'8 7.1
2016-Jul-26 08:30N 34°41' E 135°15'0 0.0
2016-Jul-26 07:30N 34°41' E 135°15'0 0.0
2016-Jul-26 06:18N 34°41' E 135°15'0 0.0
2016-Jul-26 05:30N 34°41' E 135°15'0 0.0
2016-Jul-26 04:30N 34°41' E 135°15'0 0.0
2016-Jul-26 03:30N 34°41' E 135°15'0 0.0
2016-Jul-26 02:30N 34°41' E 135°15'0 0.0
2016-Jul-26 01:30N 34°41' E 135°15'0 0.0
2016-Jul-26 00:30N 34°41' E 135°15'0 0.0
2016-Jul-25 23:33N 34°41' E 135°15'3 1.9
2016-Jul-25 22:06N 34°38' E 135°17'0 0.0
2016-Jul-25 21:30N 34°38' E 135°17'0 0.1
2016-Jul-25 20:30N 34°38' E 135°17'0 0.0
2016-Jul-25 19:30N 34°38' E 135°17'0 0.0
2016-Jul-25 18:30N 34°38' E 135°17'0 0.0
2016-Jul-25 17:24N 34°38' E 135°17'0 0.0
2016-Jul-25 16:24N 34°38' E 135°17'0 0.1
2016-Jul-25 15:30N 34°38' E 135°17'0 0.0
2016-Jul-25 14:30N 34°38' E 135°17'0 0.0
2016-Jul-25 13:30N 34°38' E 135°17'0 0.1
2016-Jul-25 12:30N 34°38' E 135°17'6 6.1
2016-Jul-25 11:34N 34°39' E 135°24'0 0.0
2016-Jul-25 10:29N 34°39' E 135°24'0 0.0
2016-Jul-25 09:05N 34°39' E 135°24'0 0.0
2016-Jul-25 04:33N 34°39' E 135°24'4 4.2
2016-Jul-25 03:32N 34°36' E 135°20'  
2016-Jul-22 16:12N 31°06' E 122°22'2312.9
2016-Jul-22 14:26N 31°15' E 121°58'1314.5
2016-Jul-22 13:31N 31°19' E 121°43'8 7.5
2016-Jul-22 12:28N 31°23' E 121°35'0 0.0
2016-Jul-22 11:10N 31°23' E 121°35'0 0.0
2016-Jul-22 10:28N 31°23' E 121°35'0 0.0
2016-Jul-22 07:28N 31°23' E 121°35'0 0.0
2016-Jul-22 04:28N 31°23' E 121°35'0 0.0
2016-Jul-22 00:28N 31°23' E 121°35'0 0.0
2016-Jul-21 23:16N 31°23' E 121°35'0 0.0
2016-Jul-21 22:22N 31°23' E 121°35'  
2016-Jul-19 16:33N 34°36' E 134°55'1313.0
2016-Jul-19 15:33N 34°36' E 135°11'6 6.0
2016-Jul-19 14:33N 34°41' E 135°15'0 0.0
2016-Jul-19 13:33N 34°41' E 135°15'0 0.0
2016-Jul-19 12:21N 34°41' E 135°15'0 0.0
2016-Jul-19 11:34N 34°41' E 135°15'0 0.0
2016-Jul-19 10:34N 34°41' E 135°15'0 0.0
2016-Jul-19 09:34N 34°41' E 135°15'1 0.8
2016-Jul-19 08:33N 34°40' E 135°15'  
Track history (hours):
 
Tides and Currents Weather Stations Pressure Air Temp Water Temp Dewpoint Dewpoint Depression Visibility Wind Speed Wind Dir Waves Ship Positions

Ds Blue Wave

Last reported at 2016-Jul-29 08:19 UTC. Time now 2016-Jul-30 22:43 UTC.
Position N 31°15' E 121°57'.

Length 129 m; draft 7.2 m.

Type: Cargo ship. MMSI: 636092200.

Date/timePositionNaut miles runAvg speedWind from/ knotsBaromVisibWave heightAir tempDewpointWater temp
2016-Jul-29 08:19N 31°15' E 121°57'1314.5
2016-Jul-29 07:26N 31°19' E 121°43'7 1.7
2016-Jul-29 03:24N 31°22' E 121°35'0 0.0
2016-Jul-29 00:30N 31°22' E 121°35'0 0.0
2016-Jul-28 21:12N 31°22' E 121°35'0 0.0
2016-Jul-28 20:06N 31°22' E 121°35'1 0.3
2016-Jul-28 15:32N 31°22' E 121°37'  
2016-Jul-26 10:23N 34°36' E 134°56'1012.2
2016-Jul-26 09:33N 34°36' E 135°08'8 7.1
2016-Jul-26 08:30N 34°41' E 135°15'0 0.0
2016-Jul-26 07:30N 34°41' E 135°15'0 0.0
2016-Jul-26 06:18N 34°41' E 135°15'0 0.0
2016-Jul-26 05:30N 34°41' E 135°15'0 0.0
2016-Jul-26 04:30N 34°41' E 135°15'0 0.0
2016-Jul-26 03:30N 34°41' E 135°15'0 0.0
2016-Jul-26 02:30N 34°41' E 135°15'0 0.0
2016-Jul-26 01:30N 34°41' E 135°15'0 0.0
2016-Jul-26 00:30N 34°41' E 135°15'0 0.0
2016-Jul-25 23:33N 34°41' E 135°15'3 1.9
2016-Jul-25 22:06N 34°38' E 135°17'0 0.0
2016-Jul-25 21:30N 34°38' E 135°17'0 0.1
2016-Jul-25 20:30N 34°38' E 135°17'0 0.0
2016-Jul-25 19:30N 34°38' E 135°17'0 0.0
2016-Jul-25 18:30N 34°38' E 135°17'0 0.0
2016-Jul-25 17:24N 34°38' E 135°17'0 0.0
2016-Jul-25 16:24N 34°38' E 135°17'0 0.1
2016-Jul-25 15:30N 34°38' E 135°17'0 0.0
2016-Jul-25 14:30N 34°38' E 135°17'0 0.0
2016-Jul-25 13:30N 34°38' E 135°17'0 0.1
2016-Jul-25 12:30N 34°38' E 135°17'6 6.1
2016-Jul-25 11:34N 34°39' E 135°24'0 0.0
2016-Jul-25 10:29N 34°39' E 135°24'0 0.0
2016-Jul-25 09:05N 34°39' E 135°24'0 0.0
2016-Jul-25 04:33N 34°39' E 135°24'4 4.2
2016-Jul-25 03:32N 34°36' E 135°20'  
2016-Jul-22 16:12N 31°06' E 122°22'2312.9
2016-Jul-22 14:26N 31°15' E 121°58'1314.5
2016-Jul-22 13:31N 31°19' E 121°43'8 7.5
2016-Jul-22 12:28N 31°23' E 121°35'0 0.0
2016-Jul-22 11:10N 31°23' E 121°35'0 0.0
2016-Jul-22 10:28N 31°23' E 121°35'0 0.0
2016-Jul-22 07:28N 31°23' E 121°35'0 0.0
2016-Jul-22 04:28N 31°23' E 121°35'0 0.0
2016-Jul-22 00:28N 31°23' E 121°35'0 0.0
2016-Jul-21 23:16N 31°23' E 121°35'0 0.0
2016-Jul-21 22:22N 31°23' E 121°35'  
2016-Jul-19 16:33N 34°36' E 134°55'1313.0
2016-Jul-19 15:33N 34°36' E 135°11'6 6.0
2016-Jul-19 14:33N 34°41' E 135°15'0 0.0
2016-Jul-19 13:33N 34°41' E 135°15'0 0.0
2016-Jul-19 12:21N 34°41' E 135°15'0 0.0
2016-Jul-19 11:34N 34°41' E 135°15'0 0.0
2016-Jul-19 10:34N 34°41' E 135°15'0 0.0
2016-Jul-19 09:34N 34°41' E 135°15'1 0.8
2016-Jul-19 08:33N 34°40' E 135°15'  

Dump ship's entire track history